sensor_id;sensor_type;location;lat;lon;timestamp;temperature;humidity
780;DHT22;373;49.342;8.146;2023-10-09T00:00:33;17.20;1.00
780;DHT22;373;49.342;8.146;2023-10-09T00:03:17;17.40;99.90
780;DHT22;373;49.342;8.146;2023-10-09T00:05:44;17.50;1.00
780;DHT22;373;49.342;8.146;2023-10-09T00:08:13;17.40;1.00
780;DHT22;373;49.342;8.146;2023-10-09T00:10:44;17.60;99.90
780;DHT22;373;49.342;8.146;2023-10-09T00:13:20;17.70;99.90
780;DHT22;373;49.342;8.146;2023-10-09T00:15:54;17.40;93.80
780;DHT22;373;49.342;8.146;2023-10-09T00:18:25;17.30;99.90
780;DHT22;373;49.342;8.146;2023-10-09T00:20:55;17.40;99.90
780;DHT22;373;49.342;8.146;2023-10-09T00:23:27;17.50;24.10
780;DHT22;373;49.342;8.146;2023-10-09T00:25:57;17.70;1.00
780;DHT22;373;49.342;8.146;2023-10-09T00:28:42;17.60;1.00
780;DHT22;373;49.342;8.146;2023-10-09T00:31:10;17.50;1.00
780;DHT22;373;49.342;8.146;2023-10-09T00:33:41;17.40;1.00
780;DHT22;373;49.342;8.146;2023-10-09T00:36:08;17.40;1.00
780;DHT22;373;49.342;8.146;2023-10-09T00:38:44;17.10;99.90
780;DHT22;373;49.342;8.146;2023-10-09T00:41:16;17.00;1.00
780;DHT22;373;49.342;8.146;2023-10-09T00:43:49;16.90;1.00
780;DHT22;373;49.342;8.146;2023-10-09T00:46:17;16.40;1.00
780;DHT22;373;49.342;8.146;2023-10-09T00:48:53;16.20;1.00
780;DHT22;373;49.342;8.146;2023-10-09T00:51:22;16.40;99.90
780;DHT22;373;49.342;8.146;2023-10-09T00:53:52;16.30;1.00
780;DHT22;373;49.342;8.146;2023-10-09T00:56:20;16.20;99.90
780;DHT22;373;49.342;8.146;2023-10-09T00:58:57;16.30;1.00
780;DHT22;373;49.342;8.146;2023-10-09T01:01:33;16.20;99.90
780;DHT22;373;49.342;8.146;2023-10-09T01:04:03;16.00;1.00
780;DHT22;373;49.342;8.146;2023-10-09T01:06:36;16.10;99.90
780;DHT22;373;49.342;8.146;2023-10-09T01:09:10;16.10;75.30
780;DHT22;373;49.342;8.146;2023-10-09T01:11:38;16.10;99.90
780;DHT22;373;49.342;8.146;2023-10-09T01:14:16;16.20;37.40
780;DHT22;373;49.342;8.146;2023-10-09T01:16:47;16.30;66.80
780;DHT22;373;49.342;8.146;2023-10-09T01:19:14;16.30;1.00
780;DHT22;373;49.342;8.146;2023-10-09T01:21:50;16.40;1.00
780;DHT22;373;49.342;8.146;2023-10-09T01:24:18;16.50;54.30
780;DHT22;373;49.342;8.146;2023-10-09T01:26:48;16.70;99.90
780;DHT22;373;49.342;8.146;2023-10-09T01:29:17;16.90;1.00
780;DHT22;373;49.342;8.146;2023-10-09T01:31:45;17.00;1.00
780;DHT22;373;49.342;8.146;2023-10-09T01:34:21;17.00;99.90
780;DHT22;373;49.342;8.146;2023-10-09T01:36:52;17.00;99.90
780;DHT22;373;49.342;8.146;2023-10-09T01:39:23;17.20;99.90
780;DHT22;373;49.342;8.146;2023-10-09T01:41:52;17.10;1.00
780;DHT22;373;49.342;8.146;2023-10-09T01:44:28;17.20;99.90
780;DHT22;373;49.342;8.146;2023-10-09T01:47:00;17.40;1.00
780;DHT22;373;49.342;8.146;2023-10-09T01:49:33;17.50;99.90
780;DHT22;373;49.342;8.146;2023-10-09T01:52:03;17.40;99.90
780;DHT22;373;49.342;8.146;2023-10-09T01:54:36;17.50;48.80
780;DHT22;373;49.342;8.146;2023-10-09T01:57:04;17.60;1.00
780;DHT22;373;49.342;8.146;2023-10-09T01:59:39;17.70;99.90
780;DHT22;373;49.342;8.146;2023-10-09T02:02:13;17.70;99.90
780;DHT22;373;49.342;8.146;2023-10-09T02:04:52;17.70;1.00
780;DHT22;373;49.342;8.146;2023-10-09T02:07:20;17.70;99.90
780;DHT22;373;49.342;8.146;2023-10-09T02:09:56;17.70;1.00
780;DHT22;373;49.342;8.146;2023-10-09T02:12:23;17.80;99.90
780;DHT22;373;49.342;8.146;2023-10-09T02:14:52;18.00;1.00
780;DHT22;373;49.342;8.146;2023-10-09T02:17:21;18.00;1.00
780;DHT22;373;49.342;8.146;2023-10-09T02:19:54;17.70;35.70
780;DHT22;373;49.342;8.146;2023-10-09T02:22:23;17.50;1.00
780;DHT22;373;49.342;8.146;2023-10-09T02:24:52;17.60;8.50
780;DHT22;373;49.342;8.146;2023-10-09T02:27:26;17.60;99.90
780;DHT22;373;49.342;8.146;2023-10-09T02:30:10;17.70;99.90
780;DHT22;373;49.342;8.146;2023-10-09T02:32:45;17.60;99.90
780;DHT22;373;49.342;8.146;2023-10-09T02:35:19;17.60;99.90
780;DHT22;373;49.342;8.146;2023-10-09T02:38:04;17.80;99.90
780;DHT22;373;49.342;8.146;2023-10-09T02:40:40;17.70;99.90
780;DHT22;373;49.342;8.146;2023-10-09T02:43:28;17.60;99.90
780;DHT22;373;49.342;8.146;2023-10-09T02:46:00;17.80;99.90
780;DHT22;373;49.342;8.146;2023-10-09T02:48:39;17.50;99.90
780;DHT22;373;49.342;8.146;2023-10-09T02:51:08;17.80;99.90
780;DHT22;373;49.342;8.146;2023-10-09T02:53:47;17.80;99.90
780;DHT22;373;49.342;8.146;2023-10-09T02:56:17;17.90;99.90
780;DHT22;373;49.342;8.146;2023-10-09T02:58:51;17.90;1.00
780;DHT22;373;49.342;8.146;2023-10-09T03:01:18;17.70;1.00
780;DHT22;373;49.342;8.146;2023-10-09T03:03:46;17.70;99.90
780;DHT22;373;49.342;8.146;2023-10-09T03:06:13;17.70;99.90
780;DHT22;373;49.342;8.146;2023-10-09T03:08:49;17.50;99.90
780;DHT22;373;49.342;8.146;2023-10-09T03:11:16;17.50;1.00
780;DHT22;373;49.342;8.146;2023-10-09T03:13:44;17.20;24.30
780;DHT22;373;49.342;8.146;2023-10-09T03:16:16;17.10;99.90
780;DHT22;373;49.342;8.146;2023-10-09T03:18:46;17.00;99.90
780;DHT22;373;49.342;8.146;2023-10-09T03:21:14;17.00;99.90
780;DHT22;373;49.342;8.146;2023-10-09T03:23:43;16.90;99.90
780;DHT22;373;49.342;8.146;2023-10-09T03:26:10;16.90;99.90
780;DHT22;373;49.342;8.146;2023-10-09T03:28:37;17.10;1.00
780;DHT22;373;49.342;8.146;2023-10-09T03:31:05;17.00;1.00
780;DHT22;373;49.342;8.146;2023-10-09T03:33:34;17.00;99.90
780;DHT22;373;49.342;8.146;2023-10-09T03:36:01;16.90;99.90
780;DHT22;373;49.342;8.146;2023-10-09T03:38:33;16.80;1.00
780;DHT22;373;49.342;8.146;2023-10-09T03:41:02;16.80;99.90
780;DHT22;373;49.342;8.146;2023-10-09T03:43:33;16.80;1.00
780;DHT22;373;49.342;8.146;2023-10-09T03:46:04;16.90;1.00
780;DHT22;373;49.342;8.146;2023-10-09T03:48:41;17.00;99.90
780;DHT22;373;49.342;8.146;2023-10-09T03:51:09;17.20;1.00
780;DHT22;373;49.342;8.146;2023-10-09T03:53:39;17.30;1.00
780;DHT22;373;49.342;8.146;2023-10-09T03:56:07;17.30;1.00
780;DHT22;373;49.342;8.146;2023-10-09T03:58:38;17.20;99.90
780;DHT22;373;49.342;8.146;2023-10-09T04:01:09;17.30;1.00
780;DHT22;373;49.342;8.146;2023-10-09T04:03:44;17.40;99.90
780;DHT22;373;49.342;8.146;2023-10-09T04:06:11;17.50;85.50
780;DHT22;373;49.342;8.146;2023-10-09T04:08:38;17.30;1.00
780;DHT22;373;49.342;8.146;2023-10-09T04:11:13;17.40;1.00
780;DHT22;373;49.342;8.146;2023-10-09T04:13:44;17.00;99.90
780;DHT22;373;49.342;8.146;2023-10-09T04:16:12;16.70;99.90
780;DHT22;373;49.342;8.146;2023-10-09T04:19:01;16.70;1.00
780;DHT22;373;49.342;8.146;2023-10-09T04:21:37;16.70;1.00
780;DHT22;373;49.342;8.146;2023-10-09T04:24:04;16.40;1.00
780;DHT22;373;49.342;8.146;2023-10-09T04:26:50;16.30;1.00
780;DHT22;373;49.342;8.146;2023-10-09T04:29:23;16.20;99.90
780;DHT22;373;49.342;8.146;2023-10-09T04:31:53;16.40;99.90
780;DHT22;373;49.342;8.146;2023-10-09T04:34:23;16.50;1.00
780;DHT22;373;49.342;8.146;2023-10-09T04:36:55;16.70;99.90
780;DHT22;373;49.342;8.146;2023-10-09T04:39:25;16.80;95.10
780;DHT22;373;49.342;8.146;2023-10-09T04:42:03;16.70;1.00
780;DHT22;373;49.342;8.146;2023-10-09T04:44:52;16.80;99.90
780;DHT22;373;49.342;8.146;2023-10-09T04:47:51;16.70;1.00
780;DHT22;373;49.342;8.146;2023-10-09T04:50:25;16.70;99.90
780;DHT22;373;49.342;8.146;2023-10-09T04:53:18;16.90;91.00
780;DHT22;373;49.342;8.146;2023-10-09T04:55:54;16.90;99.90
780;DHT22;373;49.342;8.146;2023-10-09T04:58:20;17.10;9.40
780;DHT22;373;49.342;8.146;2023-10-09T05:00:52;17.10;96.30
780;DHT22;373;49.342;8.146;2023-10-09T05:03:38;17.30;1.00
780;DHT22;373;49.342;8.146;2023-10-09T05:06:13;17.30;1.00
780;DHT22;373;49.342;8.146;2023-10-09T05:08:58;17.00;1.00
780;DHT22;373;49.342;8.146;2023-10-09T05:11:35;17.00;1.00
780;DHT22;373;49.342;8.146;2023-10-09T05:14:19;17.00;98.50
780;DHT22;373;49.342;8.146;2023-10-09T05:17:04;17.00;1.00
780;DHT22;373;49.342;8.146;2023-10-09T05:19:32;16.80;99.90
780;DHT22;373;49.342;8.146;2023-10-09T05:22:29;16.90;99.90
780;DHT22;373;49.342;8.146;2023-10-09T05:25:02;17.30;99.90
780;DHT22;373;49.342;8.146;2023-10-09T05:27:29;17.00;1.00
780;DHT22;373;49.342;8.146;2023-10-09T05:30:16;17.20;99.90
780;DHT22;373;49.342;8.146;2023-10-09T05:32:53;17.40;99.90
780;DHT22;373;49.342;8.146;2023-10-09T05:35:24;17.50;99.90
780;DHT22;373;49.342;8.146;2023-10-09T05:38:10;17.50;1.20
780;DHT22;373;49.342;8.146;2023-10-09T05:40:50;17.50;1.00
780;DHT22;373;49.342;8.146;2023-10-09T05:43:20;17.60;99.90
780;DHT22;373;49.342;8.146;2023-10-09T05:46:05;17.50;99.90
780;DHT22;373;49.342;8.146;2023-10-09T05:48:35;17.50;99.90
780;DHT22;373;49.342;8.146;2023-10-09T05:51:21;17.60;17.20
780;DHT22;373;49.342;8.146;2023-10-09T05:54:03;17.80;1.00
780;DHT22;373;49.342;8.146;2023-10-09T05:57:10;17.60;1.00
780;DHT22;373;49.342;8.146;2023-10-09T05:59:54;17.20;99.90
780;DHT22;373;49.342;8.146;2023-10-09T06:02:39;16.70;1.00
780;DHT22;373;49.342;8.146;2023-10-09T06:05:25;16.60;99.90
780;DHT22;373;49.342;8.146;2023-10-09T06:08:17;16.60;99.90
780;DHT22;373;49.342;8.146;2023-10-09T06:10:52;16.90;1.00
780;DHT22;373;49.342;8.146;2023-10-09T06:13:31;17.00;99.90
780;DHT22;373;49.342;8.146;2023-10-09T06:16:11;17.20;99.90
780;DHT22;373;49.342;8.146;2023-10-09T06:18:57;17.30;99.90
780;DHT22;373;49.342;8.146;2023-10-09T06:21:37;17.40;80.70
780;DHT22;373;49.342;8.146;2023-10-09T06:24:23;17.40;1.00
780;DHT22;373;49.342;8.146;2023-10-09T06:26:53;17.40;1.00
780;DHT22;373;49.342;8.146;2023-10-09T06:29:49;17.60;99.90
780;DHT22;373;49.342;8.146;2023-10-09T06:32:39;17.50;99.90
780;DHT22;373;49.342;8.146;2023-10-09T06:35:16;17.50;1.00
780;DHT22;373;49.342;8.146;2023-10-09T06:37:45;17.50;99.90
780;DHT22;373;49.342;8.146;2023-10-09T06:40:31;17.70;99.90
780;DHT22;373;49.342;8.146;2023-10-09T06:43:17;18.00;60.40
780;DHT22;373;49.342;8.146;2023-10-09T06:45:53;18.20;1.00
780;DHT22;373;49.342;8.146;2023-10-09T06:48:24;18.20;1.00
780;DHT22;373;49.342;8.146;2023-10-09T06:51:12;18.00;1.00
780;DHT22;373;49.342;8.146;2023-10-09T06:54:02;17.60;12.20
780;DHT22;373;49.342;8.146;2023-10-09T06:56:32;17.20;99.90
780;DHT22;373;49.342;8.146;2023-10-09T06:59:15;17.20;99.90
780;DHT22;373;49.342;8.146;2023-10-09T07:01:47;17.20;99.90
780;DHT22;373;49.342;8.146;2023-10-09T07:04:33;17.00;99.90
780;DHT22;373;49.342;8.146;2023-10-09T07:07:12;17.10;1.00
780;DHT22;373;49.342;8.146;2023-10-09T07:09:44;17.00;1.00
780;DHT22;373;49.342;8.146;2023-10-09T07:12:32;16.70;1.00
780;DHT22;373;49.342;8.146;2023-10-09T07:15:00;16.50;14.30
780;DHT22;373;49.342;8.146;2023-10-09T07:17:50;16.80;23.30
780;DHT22;373;49.342;8.146;2023-10-09T07:20:18;17.10;99.90
780;DHT22;373;49.342;8.146;2023-10-09T07:22:59;17.40;1.00
780;DHT22;373;49.342;8.146;2023-10-09T07:25:39;17.70;99.90
780;DHT22;373;49.342;8.146;2023-10-09T07:28:21;17.80;99.90
780;DHT22;373;49.342;8.146;2023-10-09T07:31:16;18.30;99.90
780;DHT22;373;49.342;8.146;2023-10-09T07:33:51;18.40;80.50
780;DHT22;373;49.342;8.146;2023-10-09T07:36:23;18.00;87.30
780;DHT22;373;49.342;8.146;2023-10-09T07:39:03;17.90;99.90
780;DHT22;373;49.342;8.146;2023-10-09T07:41:39;18.00;99.90
780;DHT22;373;49.342;8.146;2023-10-09T07:44:10;18.00;1.00
780;DHT22;373;49.342;8.146;2023-10-09T07:47:05;18.10;64.50
780;DHT22;373;49.342;8.146;2023-10-09T07:50:09;18.00;1.00
780;DHT22;373;49.342;8.146;2023-10-09T07:52:37;18.00;99.90
780;DHT22;373;49.342;8.146;2023-10-09T07:55:09;18.20;99.90
780;DHT22;373;49.342;8.146;2023-10-09T07:57:51;18.40;1.00
780;DHT22;373;49.342;8.146;2023-10-09T08:00:18;18.50;99.90
780;DHT22;373;49.342;8.146;2023-10-09T08:03:25;18.50;1.00
780;DHT22;373;49.342;8.146;2023-10-09T08:05:58;18.60;1.00
780;DHT22;373;49.342;8.146;2023-10-09T08:08:33;18.70;1.00
780;DHT22;373;49.342;8.146;2023-10-09T08:11:29;18.40;1.00
780;DHT22;373;49.342;8.146;2023-10-09T08:14:25;18.40;1.00
780;DHT22;373;49.342;8.146;2023-10-09T08:17:14;18.40;1.00
780;DHT22;373;49.342;8.146;2023-10-09T08:19:46;18.40;1.00
780;DHT22;373;49.342;8.146;2023-10-09T08:22:30;18.30;1.00
780;DHT22;373;49.342;8.146;2023-10-09T08:25:18;18.50;1.00
780;DHT22;373;49.342;8.146;2023-10-09T08:27:58;18.80;99.90
780;DHT22;373;49.342;8.146;2023-10-09T08:30:45;19.10;99.90
780;DHT22;373;49.342;8.146;2023-10-09T08:33:29;19.30;99.90
780;DHT22;373;49.342;8.146;2023-10-09T08:36:10;19.30;99.90
780;DHT22;373;49.342;8.146;2023-10-09T08:38:40;19.30;96.40
780;DHT22;373;49.342;8.146;2023-10-09T08:41:10;19.50;33.10
780;DHT22;373;49.342;8.146;2023-10-09T08:43:49;19.60;28.80
780;DHT22;373;49.342;8.146;2023-10-09T08:46:22;19.70;1.00
780;DHT22;373;49.342;8.146;2023-10-09T08:48:53;19.60;13.50
780;DHT22;373;49.342;8.146;2023-10-09T08:51:24;19.70;70.30
780;DHT22;373;49.342;8.146;2023-10-09T08:53:51;19.80;90.40
780;DHT22;373;49.342;8.146;2023-10-09T08:56:19;19.90;58.30
780;DHT22;373;49.342;8.146;2023-10-09T08:58:50;20.00;17.40
780;DHT22;373;49.342;8.146;2023-10-09T09:01:18;20.20;58.90
780;DHT22;373;49.342;8.146;2023-10-09T09:03:48;20.50;1.00
780;DHT22;373;49.342;8.146;2023-10-09T09:06:17;20.90;1.00
780;DHT22;373;49.342;8.146;2023-10-09T09:08:46;20.70;1.00
780;DHT22;373;49.342;8.146;2023-10-09T09:11:15;20.30;1.00
780;DHT22;373;49.342;8.146;2023-10-09T09:13:44;20.20;1.00
780;DHT22;373;49.342;8.146;2023-10-09T09:16:18;20.30;1.00
780;DHT22;373;49.342;8.146;2023-10-09T09:18:50;20.70;1.00
780;DHT22;373;49.342;8.146;2023-10-09T09:21:22;20.70;1.00
780;DHT22;373;49.342;8.146;2023-10-09T09:24:00;20.80;1.00
780;DHT22;373;49.342;8.146;2023-10-09T09:26:36;20.90;1.00
780;DHT22;373;49.342;8.146;2023-10-09T09:29:05;20.40;1.00
780;DHT22;373;49.342;8.146;2023-10-09T09:31:33;20.10;1.00
780;DHT22;373;49.342;8.146;2023-10-09T09:34:05;19.90;1.00
780;DHT22;373;49.342;8.146;2023-10-09T09:36:50;20.00;1.00
780;DHT22;373;49.342;8.146;2023-10-09T09:39:26;20.20;1.00
780;DHT22;373;49.342;8.146;2023-10-09T09:41:55;20.10;1.00
780;DHT22;373;49.342;8.146;2023-10-09T09:44:33;20.40;1.00
780;DHT22;373;49.342;8.146;2023-10-09T09:47:11;20.20;1.00
780;DHT22;373;49.342;8.146;2023-10-09T09:49:41;20.50;1.00
780;DHT22;373;49.342;8.146;2023-10-09T09:52:09;20.80;1.00
780;DHT22;373;49.342;8.146;2023-10-09T09:54:39;21.20;1.00
780;DHT22;373;49.342;8.146;2023-10-09T09:57:07;21.20;1.00
780;DHT22;373;49.342;8.146;2023-10-09T09:59:39;21.20;1.00
780;DHT22;373;49.342;8.146;2023-10-09T10:02:20;21.40;1.00
780;DHT22;373;49.342;8.146;2023-10-09T10:04:54;21.70;1.00
780;DHT22;373;49.342;8.146;2023-10-09T10:07:24;22.20;1.00
780;DHT22;373;49.342;8.146;2023-10-09T10:09:55;22.70;99.90
780;DHT22;373;49.342;8.146;2023-10-09T10:12:50;22.90;99.90
780;DHT22;373;49.342;8.146;2023-10-09T10:16:04;22.90;99.90
780;DHT22;373;49.342;8.146;2023-10-09T10:18:58;22.30;99.90
780;DHT22;373;49.342;8.146;2023-10-09T10:21:47;21.90;99.90
780;DHT22;373;49.342;8.146;2023-10-09T10:24:41;21.50;99.90
780;DHT22;373;49.342;8.146;2023-10-09T10:27:23;21.30;99.90
780;DHT22;373;49.342;8.146;2023-10-09T10:30:28;21.40;99.90
780;DHT22;373;49.342;8.146;2023-10-09T10:33:00;21.60;99.90
780;DHT22;373;49.342;8.146;2023-10-09T10:35:35;22.10;99.90
780;DHT22;373;49.342;8.146;2023-10-09T10:38:28;22.30;99.90
780;DHT22;373;49.342;8.146;2023-10-09T10:41:14;22.40;99.90
780;DHT22;373;49.342;8.146;2023-10-09T10:43:46;22.70;99.90
780;DHT22;373;49.342;8.146;2023-10-09T10:46:49;22.40;99.90
780;DHT22;373;49.342;8.146;2023-10-09T10:49:19;22.00;99.90
780;DHT22;373;49.342;8.146;2023-10-09T10:51:59;22.00;99.90
780;DHT22;373;49.342;8.146;2023-10-09T10:54:40;22.20;99.90
780;DHT22;373;49.342;8.146;2023-10-09T10:57:36;22.60;99.90
780;DHT22;373;49.342;8.146;2023-10-09T11:00:20;23.00;99.90
780;DHT22;373;49.342;8.146;2023-10-09T11:03:05;23.30;99.90
780;DHT22;373;49.342;8.146;2023-10-09T11:05:44;23.40;99.90
780;DHT22;373;49.342;8.146;2023-10-09T11:08:16;22.90;99.90
780;DHT22;373;49.342;8.146;2023-10-09T11:10:49;22.60;99.90
780;DHT22;373;49.342;8.146;2023-10-09T11:13:24;22.50;99.90
780;DHT22;373;49.342;8.146;2023-10-09T11:15:58;22.70;99.90
780;DHT22;373;49.342;8.146;2023-10-09T11:18:41;22.90;99.90
780;DHT22;373;49.342;8.146;2023-10-09T11:21:14;23.30;99.90
780;DHT22;373;49.342;8.146;2023-10-09T11:24:00;23.40;99.90
780;DHT22;373;49.342;8.146;2023-10-09T11:26:50;23.30;99.90
780;DHT22;373;49.342;8.146;2023-10-09T11:29:24;24.30;99.90
780;DHT22;373;49.342;8.146;2023-10-09T11:32:03;25.70;99.90
780;DHT22;373;49.342;8.146;2023-10-09T11:34:31;26.10;98.60
780;DHT22;373;49.342;8.146;2023-10-09T11:36:59;26.30;93.90
780;DHT22;373;49.342;8.146;2023-10-09T11:39:28;27.00;89.70
780;DHT22;373;49.342;8.146;2023-10-09T11:42:05;27.00;70.50
780;DHT22;373;49.342;8.146;2023-10-09T11:44:38;26.20;72.90
780;DHT22;373;49.342;8.146;2023-10-09T11:47:07;25.50;51.40
780;DHT22;373;49.342;8.146;2023-10-09T11:49:50;25.20;53.50
780;DHT22;373;49.342;8.146;2023-10-09T11:52:22;25.10;70.00
780;DHT22;373;49.342;8.146;2023-10-09T11:55:05;24.50;81.10
780;DHT22;373;49.342;8.146;2023-10-09T11:57:32;24.50;85.60
780;DHT22;373;49.342;8.146;2023-10-09T12:00:03;24.40;88.10
780;DHT22;373;49.342;8.146;2023-10-09T12:02:51;24.70;87.40
780;DHT22;373;49.342;8.146;2023-10-09T12:05:18;24.90;80.40
780;DHT22;373;49.342;8.146;2023-10-09T12:07:45;25.10;75.00
780;DHT22;373;49.342;8.146;2023-10-09T12:10:13;25.50;70.40
780;DHT22;373;49.342;8.146;2023-10-09T12:12:50;25.90;56.20
780;DHT22;373;49.342;8.146;2023-10-09T12:15:17;26.00;46.40
780;DHT22;373;49.342;8.146;2023-10-09T12:17:45;26.10;46.50
780;DHT22;373;49.342;8.146;2023-10-09T12:20:14;26.40;43.90
780;DHT22;373;49.342;8.146;2023-10-09T12:22:57;26.20;40.20
780;DHT22;373;49.342;8.146;2023-10-09T12:25:25;26.30;35.60
780;DHT22;373;49.342;8.146;2023-10-09T12:27:52;26.60;41.10
780;DHT22;373;49.342;8.146;2023-10-09T12:30:23;26.70;40.40
780;DHT22;373;49.342;8.146;2023-10-09T12:32:53;26.30;35.00
780;DHT22;373;49.342;8.146;2023-10-09T12:35:24;26.10;27.70
780;DHT22;373;49.342;8.146;2023-10-09T12:37:52;26.00;28.80
780;DHT22;373;49.342;8.146;2023-10-09T12:40:21;26.30;26.20
780;DHT22;373;49.342;8.146;2023-10-09T12:42:55;26.60;29.00
780;DHT22;373;49.342;8.146;2023-10-09T12:45:28;27.20;20.90
780;DHT22;373;49.342;8.146;2023-10-09T12:47:58;27.60;19.80
780;DHT22;373;49.342;8.146;2023-10-09T12:50:30;27.70;16.80
780;DHT22;373;49.342;8.146;2023-10-09T12:53:00;27.80;13.30
780;DHT22;373;49.342;8.146;2023-10-09T12:55:35;27.80;9.00
780;DHT22;373;49.342;8.146;2023-10-09T12:58:07;27.30;9.40
780;DHT22;373;49.342;8.146;2023-10-09T13:00:35;26.60;7.50
780;DHT22;373;49.342;8.146;2023-10-09T13:03:06;26.80;1.00
780;DHT22;373;49.342;8.146;2023-10-09T13:05:48;26.90;1.00
780;DHT22;373;49.342;8.146;2023-10-09T13:08:24;27.40;1.00
780;DHT22;373;49.342;8.146;2023-10-09T13:11:01;27.70;1.00
780;DHT22;373;49.342;8.146;2023-10-09T13:13:30;27.70;1.00
780;DHT22;373;49.342;8.146;2023-10-09T13:16:08;27.90;1.00
780;DHT22;373;49.342;8.146;2023-10-09T13:18:39;27.70;1.00
780;DHT22;373;49.342;8.146;2023-10-09T13:21:07;27.90;1.00
780;DHT22;373;49.342;8.146;2023-10-09T13:23:34;27.50;1.00
780;DHT22;373;49.342;8.146;2023-10-09T13:26:13;27.60;1.00
780;DHT22;373;49.342;8.146;2023-10-09T13:28:51;27.00;1.00
780;DHT22;373;49.342;8.146;2023-10-09T13:31:19;26.80;1.00
780;DHT22;373;49.342;8.146;2023-10-09T13:33:48;26.70;1.00
780;DHT22;373;49.342;8.146;2023-10-09T13:36:16;26.70;1.00
780;DHT22;373;49.342;8.146;2023-10-09T13:38:45;26.90;1.00
780;DHT22;373;49.342;8.146;2023-10-09T13:41:12;26.60;1.00
780;DHT22;373;49.342;8.146;2023-10-09T13:43:40;26.60;1.00
780;DHT22;373;49.342;8.146;2023-10-09T13:46:09;26.80;1.00
780;DHT22;373;49.342;8.146;2023-10-09T13:48:39;27.10;1.00
780;DHT22;373;49.342;8.146;2023-10-09T13:51:08;27.30;1.00
780;DHT22;373;49.342;8.146;2023-10-09T13:53:41;27.40;1.00
780;DHT22;373;49.342;8.146;2023-10-09T13:56:15;27.50;1.00
780;DHT22;373;49.342;8.146;2023-10-09T13:58:45;27.60;1.00
780;DHT22;373;49.342;8.146;2023-10-09T14:01:13;27.20;1.00
780;DHT22;373;49.342;8.146;2023-10-09T14:03:54;27.30;1.00
780;DHT22;373;49.342;8.146;2023-10-09T14:06:21;27.10;1.00
780;DHT22;373;49.342;8.146;2023-10-09T14:08:58;27.10;1.00
780;DHT22;373;49.342;8.146;2023-10-09T14:11:29;26.80;1.00
780;DHT22;373;49.342;8.146;2023-10-09T14:13:56;26.90;1.00
780;DHT22;373;49.342;8.146;2023-10-09T14:16:26;27.00;1.00
780;DHT22;373;49.342;8.146;2023-10-09T14:18:57;26.70;1.00
780;DHT22;373;49.342;8.146;2023-10-09T14:21:26;26.80;1.00
780;DHT22;373;49.342;8.146;2023-10-09T14:24:00;26.80;1.00
780;DHT22;373;49.342;8.146;2023-10-09T14:26:27;26.50;1.00
780;DHT22;373;49.342;8.146;2023-10-09T14:28:55;26.40;1.00
780;DHT22;373;49.342;8.146;2023-10-09T14:31:26;26.20;1.00
780;DHT22;373;49.342;8.146;2023-10-09T14:33:54;26.00;1.00
780;DHT22;373;49.342;8.146;2023-10-09T14:36:22;25.70;1.00
780;DHT22;373;49.342;8.146;2023-10-09T14:38:51;25.50;1.00
780;DHT22;373;49.342;8.146;2023-10-09T14:41:22;25.60;1.00
780;DHT22;373;49.342;8.146;2023-10-09T14:43:51;25.50;1.00
780;DHT22;373;49.342;8.146;2023-10-09T14:46:19;25.60;1.00
780;DHT22;373;49.342;8.146;2023-10-09T14:48:51;25.40;1.00
780;DHT22;373;49.342;8.146;2023-10-09T14:51:20;25.20;1.00
780;DHT22;373;49.342;8.146;2023-10-09T14:53:54;24.90;1.00
780;DHT22;373;49.342;8.146;2023-10-09T14:56:25;24.90;1.00
780;DHT22;373;49.342;8.146;2023-10-09T14:58:56;24.90;1.00
780;DHT22;373;49.342;8.146;2023-10-09T15:01:25;25.00;1.00
780;DHT22;373;49.342;8.146;2023-10-09T15:03:55;25.00;1.00
780;DHT22;373;49.342;8.146;2023-10-09T15:06:25;24.90;1.00
780;DHT22;373;49.342;8.146;2023-10-09T15:08:56;24.90;1.00
780;DHT22;373;49.342;8.146;2023-10-09T15:11:25;24.90;1.00
780;DHT22;373;49.342;8.146;2023-10-09T15:13:55;24.60;1.00
780;DHT22;373;49.342;8.146;2023-10-09T15:16:24;24.50;1.00
780;DHT22;373;49.342;8.146;2023-10-09T15:18:53;24.30;1.00
780;DHT22;373;49.342;8.146;2023-10-09T15:21:29;24.40;1.00
780;DHT22;373;49.342;8.146;2023-10-09T15:23:59;24.30;1.00
780;DHT22;373;49.342;8.146;2023-10-09T15:26:27;24.30;1.00
780;DHT22;373;49.342;8.146;2023-10-09T15:29:00;24.40;1.00
780;DHT22;373;49.342;8.146;2023-10-09T15:31:30;24.50;1.00
780;DHT22;373;49.342;8.146;2023-10-09T15:33:58;24.40;1.00
780;DHT22;373;49.342;8.146;2023-10-09T15:36:25;24.30;1.00
780;DHT22;373;49.342;8.146;2023-10-09T15:38:55;24.50;1.00
780;DHT22;373;49.342;8.146;2023-10-09T15:41:28;24.50;1.00
780;DHT22;373;49.342;8.146;2023-10-09T15:43:57;24.50;1.00
780;DHT22;373;49.342;8.146;2023-10-09T15:46:25;24.50;1.00
780;DHT22;373;49.342;8.146;2023-10-09T15:48:53;24.30;1.00
780;DHT22;373;49.342;8.146;2023-10-09T15:51:21;24.40;1.00
780;DHT22;373;49.342;8.146;2023-10-09T15:53:49;24.40;1.00
780;DHT22;373;49.342;8.146;2023-10-09T15:56:17;24.30;1.00
780;DHT22;373;49.342;8.146;2023-10-09T15:58:46;24.30;1.00
780;DHT22;373;49.342;8.146;2023-10-09T16:01:14;24.20;1.00
780;DHT22;373;49.342;8.146;2023-10-09T16:03:44;24.20;1.00
780;DHT22;373;49.342;8.146;2023-10-09T16:06:13;24.20;1.00
780;DHT22;373;49.342;8.146;2023-10-09T16:08:42;24.30;1.00
780;DHT22;373;49.342;8.146;2023-10-09T16:11:11;24.30;1.00
780;DHT22;373;49.342;8.146;2023-10-09T16:13:40;24.20;1.00
780;DHT22;373;49.342;8.146;2023-10-09T16:16:09;24.00;1.00
780;DHT22;373;49.342;8.146;2023-10-09T16:18:39;24.00;1.00
780;DHT22;373;49.342;8.146;2023-10-09T16:21:06;24.00;1.00
780;DHT22;373;49.342;8.146;2023-10-09T16:23:38;23.90;1.00
780;DHT22;373;49.342;8.146;2023-10-09T16:26:05;23.90;1.00
780;DHT22;373;49.342;8.146;2023-10-09T16:28:35;23.70;1.00
780;DHT22;373;49.342;8.146;2023-10-09T16:31:09;23.70;1.00
780;DHT22;373;49.342;8.146;2023-10-09T16:33:40;23.60;1.00
780;DHT22;373;49.342;8.146;2023-10-09T16:36:07;23.60;1.00
780;DHT22;373;49.342;8.146;2023-10-09T16:38:37;23.60;1.00
780;DHT22;373;49.342;8.146;2023-10-09T16:41:06;23.60;1.00
780;DHT22;373;49.342;8.146;2023-10-09T16:43:34;23.50;1.00
780;DHT22;373;49.342;8.146;2023-10-09T16:46:03;23.40;1.00
780;DHT22;373;49.342;8.146;2023-10-09T16:48:35;23.30;1.00
780;DHT22;373;49.342;8.146;2023-10-09T16:51:03;23.30;1.00
780;DHT22;373;49.342;8.146;2023-10-09T16:53:34;23.30;1.00
780;DHT22;373;49.342;8.146;2023-10-09T16:56:02;23.30;1.00
780;DHT22;373;49.342;8.146;2023-10-09T16:58:35;23.20;1.00
780;DHT22;373;49.342;8.146;2023-10-09T17:01:03;23.30;1.00
780;DHT22;373;49.342;8.146;2023-10-09T17:03:37;23.40;1.00
780;DHT22;373;49.342;8.146;2023-10-09T17:06:08;23.30;1.00
780;DHT22;373;49.342;8.146;2023-10-09T17:08:37;23.30;1.00
780;DHT22;373;49.342;8.146;2023-10-09T17:11:08;23.30;1.00
780;DHT22;373;49.342;8.146;2023-10-09T17:13:38;23.10;1.00
780;DHT22;373;49.342;8.146;2023-10-09T17:16:13;23.10;1.00
780;DHT22;373;49.342;8.146;2023-10-09T17:18:45;23.10;1.00
780;DHT22;373;49.342;8.146;2023-10-09T17:21:12;23.00;1.00
780;DHT22;373;49.342;8.146;2023-10-09T17:23:40;23.00;1.00
780;DHT22;373;49.342;8.146;2023-10-09T17:26:08;23.00;1.00
780;DHT22;373;49.342;8.146;2023-10-09T17:28:36;22.90;1.00
780;DHT22;373;49.342;8.146;2023-10-09T17:31:03;22.70;1.00